| time (UTC) | temp F | wind direction | speed knots | gust knots | rain 1hr in | rain 24hr in | rain mn in | humidity % | barometer mb |
| 20260906124810 | 76 | 31 | 1.7 | 5.2 | 0.00 | 0.00 | 0.00 | 43 | 1026.9 |
| 20260906123311 | 77 | 292 | 1.7 | 7.0 | 0.00 | 0.00 | 0.00 | 44 | 1026.9 |
| 20260906121810 | 75 | 351 | 2.6 | 8.7 | 0.00 | 0.00 | 0.00 | 45 | 1027.2 |
| 20260906120310 | 74 | 67 | 1.7 | 6.1 | 0.00 | 0.00 | 0.00 | 47 | 1027.2 |
| 20260906114810 | 74 | 24 | 1.7 | 7.8 | 0.00 | 0.00 | 0.00 | 47 | 1027.4 |
| 20260906113311 | 74 | 44 | 1.7 | 5.2 | 0.00 | 0.00 | 0.00 | 47 | 1027.6 |
| 20260906111814 | 74 | 16 | 1.7 | 7.0 | 0.00 | 0.00 | 0.00 | 48 | 1027.9 |
| 20260906104811 | 74 | 302 | 1.7 | 5.2 | 0.00 | 0.00 | 0.00 | 52 | 1028.1 |
| 20260906103315 | 73 | 70 | 1.7 | 7.0 | 0.00 | 0.00 | 0.00 | 50 | 1028.2 |
| 20260906094810 | 72 | 296 | 0.9 | 5.2 | 0.00 | 0.00 | 0.00 | 55 | 1028.6 |
| 20260906093311 | 70 | 318 | 1.7 | 7.0 | 0.00 | 0.00 | 0.00 | 54 | 1028.8 |
| 20260906091815 | 70 | 15 | 1.7 | 5.2 | 0.00 | 0.01 | 0.00 | 56 | 1028.9 |
| 20260906090310 | 69 | 350 | 1.7 | 5.2 | 0.00 | 0.01 | 0.00 | 57 | 1028.9 |
| 20260906084810 | 68 | 59 | 1.7 | 4.3 | 0.00 | 0.01 | 0.00 | 58 | 1028.9 |
| 20260906083310 | 69 | 188 | 0.9 | 5.2 | 0.00 | 0.01 | 0.00 | 59 | 1028.9 |
| 20260906081811 | 67 | 83 | 0.9 | 4.3 | 0.00 | 0.01 | 0.00 | 60 | 1028.9 |
| 20260906080312 | 65 | 69 | 0.9 | 4.3 | 0.00 | 0.01 | 0.00 | 61 | 1028.8 |
| 20260906074814 | 65 | 30 | 0.9 | 4.3 | 0.00 | 0.01 | 0.00 | 63 | 1028.8 |
| 20260906073315 | 64 | 55 | 0.9 | 3.5 | 0.00 | 0.01 | 0.00 | 68 | 1028.7 |
| 20260906071811 | 62 | 36 | 1.7 | 4.3 | 0.00 | 0.01 | 0.00 | 72 | 1028.7 |
| 20260906070312 | 60 | 51 | 0.9 | 3.5 | 0.00 | 0.01 | 0.00 | 81 | 1028.7 |
| 20260906064814 | 57 | 44 | 0.0 | 0.9 | 0.00 | 0.01 | 0.00 | 94 | 1028.7 |
| 20260906063313 | 55 | 44 | 0.0 | 0.9 | 0.00 | 0.01 | 0.00 | 96 | 1028.7 |
| 20260906061814 | 54 | 44 | 0.0 | 0.0 | 0.00 | 0.01 | 0.00 | 97 | 1028.6 |
| 20260906060314 | 53 | 44 | 0.0 | 0.0 | 0.00 | 0.02 | 0.00 | 97 | 1028.7 |
| 20260906054816 | 53 | 44 | 0.0 | 0.0 | 0.00 | 0.05 | 0.00 | 97 | 1028.4 |
| 20260906053313 | 52 | 44 | 0.0 | 0.0 | 0.00 | 0.05 | 0.00 | 97 | 1028.3 |
| 20260906051814 | 51 | 44 | 0.0 | 0.0 | 0.00 | 0.05 | 0.00 | 96 | 1028.4 |
| 20260906050326 | 51 | 44 | 0.0 | 0.0 | 0.00 | 0.06 | 0.00 | 96 | 1028.4 |
| 20260906044810 | 51 | 44 | 0.0 | 0.0 | 0.00 | 0.06 | 0.00 | 96 | 1028.3 |
| 20260906043311 | 52 | 44 | 0.0 | 0.0 | 0.00 | 0.08 | 0.00 | 96 | 1028.2 |
| 20260906041811 | 52 | 44 | 0.0 | 0.0 | 0.00 | 0.17 | 0.00 | 97 | 1028.2 |
| 20260906040311 | 51 | 44 | 0.0 | 0.0 | 0.00 | 0.17 | 0.00 | 96 | 1028.1 |
| 20260906034812 | 51 | 44 | 0.0 | 0.0 | 0.00 | 0.17 | 0.00 | 96 | 1027.9 |
| 20260906033311 | 51 | 44 | 0.0 | 0.0 | 0.00 | 0.17 | 0.00 | 96 | 1027.9 |
| 20260906031812 | 52 | 44 | 0.0 | 0.0 | 0.00 | 0.17 | 0.00 | 96 | 1027.9 |
| 20260906030312 | 52 | 44 | 0.0 | 0.0 | 0.00 | 0.17 | 0.00 | 96 | 1027.8 |
| 20260906024812 | 53 | 44 | 0.0 | 0.0 | 0.00 | 0.17 | 0.00 | 96 | 1027.5 |
| 20260906023311 | 53 | 44 | 0.0 | 0.0 | 0.00 | 0.17 | 0.00 | 96 | 1027.6 |
| 20260906020314 | 54 | 44 | 0.0 | 0.0 | 0.00 | 0.17 | 0.00 | 96 | 1027.6 |
| 20260906014814 | 55 | 44 | 0.0 | 0.0 | 0.00 | 0.17 | 0.00 | 96 | 1027.6 |
| 20260906011810 | 55 | 44 | 0.0 | 0.0 | 0.00 | 0.17 | 0.00 | 96 | 1027.6 |
| 20260906010315 | 54 | 44 | 0.0 | 0.0 | 0.00 | 0.17 | 0.00 | 95 | 1027.6 |
| 20260906004816 | 54 | 44 | 0.0 | 0.0 | 0.00 | 0.17 | 0.00 | 95 | 1027.5 |
| 20260906003311 | 55 | 44 | 0.0 | 0.0 | 0.00 | 0.17 | 0.00 | 95 | 1027.5 |
| 20260906001811 | 55 | 44 | 0.0 | 0.0 | 0.00 | 0.17 | 0.00 | 94 | 1027.5 |
| 20260906000312 | 56 | 44 | 0.0 | 1.7 | 0.00 | 0.17 | 0.00 | 95 | 1027.5 |
| 20260905234813 | 55 | 19 | 0.0 | 2.6 | 0.00 | 0.17 | 0.00 | 94 | 1027.5 |
| 20260905233307 | 56 | 268 | 0.0 | 0.0 | 0.00 | 0.17 | 0.00 | 94 | 1027.2 |
| 20260905230310 | 57 | 268 | 0.0 | 0.0 | 0.00 | 0.17 | 0.00 | 94 | 1027.2 |
| 20260905224808 | 56 | 268 | 0.0 | 0.0 | 0.00 | 0.17 | 0.00 | 93 | 1027.2 |
| 20260905223309 | 57 | 268 | 0.0 | 0.0 | 0.00 | 0.17 | 0.00 | 92 | 1027.0 |
| 20260905220303 | 58 | 268 | 0.0 | 0.9 | 0.00 | 0.17 | 0.00 | 92 | 1027.1 |
| 20260905214809 | 59 | 268 | 0.0 | 0.9 | 0.00 | 0.17 | 0.17 | 92 | 1027.1 |
| 20260905213303 | 58 | 268 | 0.0 | 0.0 | 0.00 | 0.17 | 0.17 | 91 | 1026.9 |
| 20260905211805 | 59 | 268 | 0.0 | 0.9 | 0.00 | 0.17 | 0.17 | 91 | 1027.0 |
| 20260905210306 | 60 | 268 | 0.0 | 0.9 | 0.00 | 0.17 | 0.17 | 90 | 1026.8 |
| 20260905204804 | 60 | 268 | 0.0 | 0.0 | 0.00 | 0.17 | 0.17 | 89 | 1026.7 |
| 20260905203308 | 61 | 268 | 0.0 | 0.9 | 0.00 | 0.17 | 0.17 | 87 | 1026.7 |
| 20260905201801 | 62 | 268 | 0.0 | 1.7 | 0.00 | 0.17 | 0.17 | 85 | 1026.6 |
| 20260905200302 | 63 | 268 | 0.0 | 1.7 | 0.00 | 0.17 | 0.17 | 84 | 1026.4 |
| 20260905193302 | 64 | 269 | 0.0 | 3.5 | 0.00 | 0.17 | 0.17 | 82 | 1026.2 |
| 20260905191803 | 65 | 271 | 0.9 | 4.3 | 0.00 | 0.17 | 0.17 | 81 | 1026.0 |
| 20260905184803 | 67 | 306 | 0.9 | 5.2 | 0.00 | 0.17 | 0.17 | 82 | 1025.4 |
| 20260905183311 | 67 | 263 | 1.7 | 6.1 | 0.00 | 0.17 | 0.17 | 84 | 1025.2 |
| 20260905181802 | 68 | 231 | 0.9 | 4.3 | 0.00 | 0.17 | 0.17 | 84 | 1025.0 |
| 20260905180303 | 68 | 214 | 0.9 | 5.2 | 0.00 | 0.17 | 0.17 | 84 | 1024.8 |
| 20260905174801 | 68 | 267 | 1.7 | 5.2 | 0.00 | 0.17 | 0.17 | 83 | 1024.5 |
| 20260905173309 | 69 | 270 | 0.9 | 5.2 | 0.00 | 0.17 | 0.17 | 82 | 1024.4 |
| 20260905171802 | 70 | 219 | 1.7 | 7.0 | 0.00 | 0.17 | 0.17 | 79 | 1024.3 |
| 20260905170301 | 71 | 238 | 1.7 | 5.2 | 0.00 | 0.17 | 0.17 | 72 | 1024.3 |
| 20260905164801 | 72 | 248 | 1.7 | 6.1 | 0.00 | 0.17 | 0.17 | 71 | 1024.2 |
| 20260905163306 | 72 | 220 | 1.7 | 6.1 | 0.00 | 0.17 | 0.17 | 73 | 1024.2 |
| 20260905161803 | 72 | 193 | 2.6 | 7.0 | 0.00 | 0.17 | 0.17 | 72 | 1024.2 |
| 20260905160302 | 73 | 213 | 2.6 | 7.8 | 0.00 | 0.17 | 0.17 | 71 | 1024.2 |
| 20260905153301 | 73 | 265 | 1.7 | 7.8 | 0.00 | 0.17 | 0.17 | 70 | 1024.3 |
| 20260905151802 | 74 | 166 | 2.6 | 8.7 | 0.00 | 0.17 | 0.17 | 67 | 1024.2 |
| 20260905150301 | 74 | 309 | 2.6 | 8.7 | 0.00 | 0.17 | 0.17 | 65 | 1024.2 |
| 20260905144807 | 74 | 267 | 2.6 | 7.8 | 0.00 | 0.17 | 0.17 | 64 | 1024.2 |
| 20260905143301 | 73 | 236 | 2.6 | 7.0 | 0.00 | 0.17 | 0.17 | 66 | 1024.2 |
| 20260905141801 | 73 | 242 | 2.6 | 7.0 | 0.00 | 0.17 | 0.17 | 66 | 1024.2 |
| 20260905140301 | 73 | 213 | 2.6 | 7.0 | 0.00 | 0.17 | 0.17 | 64 | 1024.3 |
| 20260905134802 | 73 | 298 | 3.5 | 9.6 | 0.00 | 0.17 | 0.17 | 63 | 1024.5 |
| 20260905133755 | 72 | 213 | 2.6 | 8.7 | 0.00 | 0.17 | 0.17 | 68 | 1024.6 |
| 20260905133114 | 72 | 221 | 2.6 | 7.8 | 0.00 | 0.17 | 0.17 | 70 | 1024.8 |
| 20260905130308 | 70 | 216 | 2.6 | 8.7 | 0.00 | 0.17 | 0.17 | 72 | 1024.8 |